Time;durP1;ratioP1;P1;durP2;ratioP2;P2;SDS_P1;SDS_P2;PMS_P1;PMS_P2;Temp;Humidity;BMP_temperature;BMP_pressure;BME280_temperature;BME280_humidity;BME280_pressure;Samples;Min_cycle;Max_cycle;Signal;HPM_P1;HPM_P2
2023/06/27 00:02:22;;;;;;;;;;;;;;;11.58;72.06;95761.66;6225162;28;20314;-76
2023/06/27 00:05:26;;;;;;;;;;;;;;;11.57;71.71;95765.25;6216957;28;20396;-76
2023/06/27 00:08:31;;;;;;;;;;;;;;;11.43;72.01;95769.06;6221989;28;19921;-76
2023/06/27 00:11:37;;;;;;;;;;;;;;;11.42;71.92;95771.84;6229456;28;19920;-76
2023/06/27 00:14:40;;;;;;;;;;;;;;;11.35;72.06;95770.69;6228192;28;20150;-78
2023/06/27 00:17:46;;;;;;;;;;;;;;;11.14;72.75;95773.38;6215013;28;19922;-74
2023/06/27 00:20:49;;;;;;;;;;;;;;;11.10;73.01;95767.53;6214614;28;19968;-77
2023/06/27 00:23:55;;;;;;;;;;;;;;;10.96;73.44;95781.03;6218258;28;20287;-76
2023/06/27 00:26:59;;;;;;;;;;;;;;;11.17;72.53;95776.56;6217866;28;19921;-75
2023/06/27 00:30:03;;;;;;;;;;;;;;;11.16;72.23;95777.53;6224718;28;19928;-75
2023/06/27 00:33:05;;;;;;;;;;;;;;;11.17;72.09;95783.63;6221901;28;20012;-76
2023/06/27 00:36:12;;;;;;;;;;;;;;;11.19;71.71;95782.53;6218542;28;19959;-76
2023/06/27 00:39:15;;;;;;;;;;;;;;;11.23;71.48;95778.69;6237962;28;19921;-76
2023/06/27 00:42:21;;;;;;;;;;;;;;;11.36;70.90;95783.75;6242677;28;19920;-76
2023/06/27 00:45:25;;;;;;;;;;;;;;;11.40;70.60;95784.31;6241254;28;19928;-76
2023/06/27 00:48:26;;;;;;;;;;;;;;;11.57;69.90;95786.31;6243100;28;19921;-76
2023/06/27 00:51:32;;;;;;;;;;;;;;;11.54;69.98;95789.22;6236496;28;19921;-77
2023/06/27 00:54:36;;;;;;;;;;;;;;;11.58;69.85;95793.28;6237869;28;19928;-76
2023/06/27 00:57:40;;;;;;;;;;;;;;;11.57;69.66;95796.03;6243044;28;19920;-77
2023/06/27 01:00:41;;;;;;;;;;;;;;;11.64;69.39;95805.94;6241699;28;19928;-77
2023/06/27 01:03:47;;;;;;;;;;;;;;;11.60;69.34;95791.34;6243979;28;19921;-76
2023/06/27 01:06:54;;;;;;;;;;;;;;;11.60;69.17;95801.88;6244300;28;20014;-76
2023/06/27 01:10:00;;;;;;;;;;;;;;;11.71;68.74;95800.94;6243980;28;19960;-76
2023/06/27 01:13:12;;;;;;;;;;;;;;;11.66;68.75;95804.00;6232649;28;19921;-76
2023/06/27 01:16:16;;;;;;;;;;;;;;;11.71;68.74;95798.31;6246303;28;20407;-76
2023/06/27 01:19:20;;;;;;;;;;;;;;;11.69;68.39;95801.09;6245162;28;19921;-77
2023/06/27 01:22:29;;;;;;;;;;;;;;;11.62;68.85;95799.94;6241630;28;19925;-76
2023/06/27 01:25:31;;;;;;;;;;;;;;;11.48;69.09;95810.84;6239165;28;19921;-75
2023/06/27 01:28:36;;;;;;;;;;;;;;;11.54;69.12;95812.94;6247563;28;19920;-76
2023/06/27 01:31:49;;;;;;;;;;;;;;;11.45;69.20;95811.94;6245951;28;19928;-76
2023/06/27 01:34:55;;;;;;;;;;;;;;;11.37;69.45;95818.81;6258973;28;19989;-76
2023/06/27 01:38:02;;;;;;;;;;;;;;;11.30;69.74;95821.16;6233410;28;19921;-74
2023/06/27 01:41:07;;;;;;;;;;;;;;;11.21;69.92;95825.38;6217558;28;20008;-75
2023/06/27 01:44:11;;;;;;;;;;;;;;;11.42;69.53;95819.25;6201206;28;19924;-75
2023/06/27 01:47:14;;;;;;;;;;;;;;;11.42;69.41;95824.53;6228424;28;20011;-75
2023/06/27 01:50:16;;;;;;;;;;;;;;;11.49;68.94;95827.47;6228114;28;19917;-76
2023/06/27 01:53:19;;;;;;;;;;;;;;;11.45;68.89;95829.53;6221866;28;20517;-75
2023/06/27 01:56:23;;;;;;;;;;;;;;;11.56;68.16;95836.53;6221418;28;19959;-76
2023/06/27 01:59:25;;;;;;;;;;;;;;;11.63;68.07;95833.25;6216551;28;19921;-76
2023/06/27 02:02:28;;;;;;;;;;;;;;;11.69;67.75;95832.72;6220688;28;19951;-76
2023/06/27 02:05:31;;;;;;;;;;;;;;;11.81;67.08;95830.00;6219829;28;19956;-75
2023/06/27 02:08:34;;;;;;;;;;;;;;;11.87;66.29;95840.03;6218593;28;19925;-76
2023/06/27 02:11:37;;;;;;;;;;;;;;;11.73;66.77;95837.72;6227928;28;19924;-74
2023/06/27 02:14:41;;;;;;;;;;;;;;;11.71;67.28;95837.00;6214467;28;19921;-76
2023/06/27 02:17:43;;;;;;;;;;;;;;;11.84;67.15;95845.53;6210575;28;19959;-78
2023/06/27 02:20:47;;;;;;;;;;;;;;;12.03;66.26;95843.00;6201325;28;20084;-76
2023/06/27 02:23:51;;;;;;;;;;;;;;;11.96;66.20;95849.78;6219579;28;19921;-77
2023/06/27 02:26:54;;;;;;;;;;;;;;;12.02;66.18;95854.50;6218632;28;19967;-76
2023/06/27 02:29:57;;;;;;;;;;;;;;;12.05;65.87;95851.59;6222305;28;19927;-75
2023/06/27 02:32:59;;;;;;;;;;;;;;;12.12;65.77;95860.66;6230472;28;20020;-76
2023/06/27 02:36:02;;;;;;;;;;;;;;;12.05;65.99;95859.50;6232090;28;19929;-76
2023/06/27 02:39:05;;;;;;;;;;;;;;;12.22;65.40;95870.41;6246318;28;19928;-75
2023/06/27 02:42:09;;;;;;;;;;;;;;;12.33;65.30;95872.94;6245044;28;20015;-75
2023/06/27 02:45:11;;;;;;;;;;;;;;;12.40;65.01;95871.44;6244741;28;19936;-76
2023/06/27 02:48:15;;;;;;;;;;;;;;;12.51;64.39;95886.31;6209010;28;20011;-75
2023/06/27 02:51:21;;;;;;;;;;;;;;;12.67;63.71;95883.16;6242526;28;19951;-74
2023/06/27 02:54:24;;;;;;;;;;;;;;;12.75;63.56;95883.31;6227997;28;19958;-75
2023/06/27 02:57:28;;;;;;;;;;;;;;;12.81;63.34;95888.03;6244763;28;20070;-75
2023/06/27 03:00:32;;;;;;;;;;;;;;;12.95;62.62;95879.69;6241645;28;19955;-75
2023/06/27 03:03:35;;;;;;;;;;;;;;;13.12;62.18;95880.00;6231206;28;19921;-76
2023/06/27 03:06:38;;;;;;;;;;;;;;;13.22;61.16;95878.19;6208530;28;19979;-75
2023/06/27 03:09:41;;;;;;;;;;;;;;;13.35;60.87;95885.84;6231902;28;19921;-74
2023/06/27 03:12:45;;;;;;;;;;;;;;;13.46;59.39;95883.88;6219783;28;19951;-75
2023/06/27 03:15:48;;;;;;;;;;;;;;;13.46;59.65;95896.25;6232769;28;19997;-75
2023/06/27 03:18:52;;;;;;;;;;;;;;;13.54;59.83;95896.38;6228436;28;20479;-76
2023/06/27 03:21:55;;;;;;;;;;;;;;;13.67;59.05;95901.34;6230338;28;20634;-75
2023/06/27 03:24:58;;;;;;;;;;;;;;;13.91;57.42;95901.72;6224437;28;20382;-75
2023/06/27 03:28:02;;;;;;;;;;;;;;;13.87;57.34;95913.59;6230399;28;19935;-75
2023/06/27 03:31:06;;;;;;;;;;;;;;;13.89;57.33;95911.59;6228543;28;19925;-76
2023/06/27 03:34:08;;;;;;;;;;;;;;;14.12;56.49;95932.41;6230581;28;20015;-77
2023/06/27 03:37:12;;;;;;;;;;;;;;;14.18;55.60;95923.91;6232906;28;19934;-74
2023/06/27 03:40:14;;;;;;;;;;;;;;;14.11;55.85;95920.19;6229759;28;19935;-76
2023/06/27 03:43:18;;;;;;;;;;;;;;;14.20;55.80;95923.78;6230661;28;19939;-76
2023/06/27 03:46:21;;;;;;;;;;;;;;;14.22;56.01;95927.94;6232732;28;19925;-76
2023/06/27 03:49:24;;;;;;;;;;;;;;;14.19;56.60;95919.47;6235784;28;19921;-76
2023/06/27 03:52:26;;;;;;;;;;;;;;;14.35;56.23;95922.31;6215364;28;20147;-77
2023/06/27 03:55:30;;;;;;;;;;;;;;;14.43;55.48;95932.16;6230821;28;20461;-76
2023/06/27 03:58:33;;;;;;;;;;;;;;;14.51;55.26;95927.81;6231189;28;20016;-76
2023/06/27 04:01:39;;;;;;;;;;;;;;;14.73;54.66;95929.25;6235831;28;19925;-76
2023/06/27 04:04:43;;;;;;;;;;;;;;;14.80;54.30;95933.00;6233706;28;19935;-76
2023/06/27 04:07:46;;;;;;;;;;;;;;;15.02;53.22;95928.25;6231005;28;19928;-76
2023/06/27 04:10:49;;;;;;;;;;;;;;;15.08;52.84;95940.88;6235973;28;19947;-77
2023/06/27 04:13:54;;;;;;;;;;;;;;;15.22;52.75;95932.41;6236485;28;20015;-76
2023/06/27 04:16:58;;;;;;;;;;;;;;;15.42;52.01;95937.56;6220771;28;19925;-76
2023/06/27 04:20:02;;;;;;;;;;;;;;;15.50;51.66;95934.97;6233721;28;20428;-77
2023/06/27 04:23:05;;;;;;;;;;;;;;;15.58;51.97;95939.53;6216123;28;19921;-76
2023/06/27 04:26:14;;;;;;;;;;;;;;;15.71;52.06;95938.19;6216827;28;20024;-76
2023/06/27 04:29:18;;;;;;;;;;;;;;;15.89;51.32;95945.28;6230518;28;19917;-76
2023/06/27 04:32:21;;;;;;;;;;;;;;;16.08;50.88;95941.59;6229716;28;19998;-76
2023/06/27 04:35:24;;;;;;;;;;;;;;;16.49;49.22;95942.63;6237755;28;19920;-76
2023/06/27 04:38:27;;;;;;;;;;;;;;;16.78;48.41;95946.75;6206410;28;20012;-76
2023/06/27 04:41:30;;;;;;;;;;;;;;;16.90;47.72;95956.13;6220266;28;19921;-77
2023/06/27 04:44:33;;;;;;;;;;;;;;;17.05;47.15;95943.88;6244958;28;19925;-76
2023/06/27 04:47:36;;;;;;;;;;;;;;;17.32;46.79;95938.44;6242428;28;19924;-75
2023/06/27 04:50:39;;;;;;;;;;;;;;;18.50;45.26;95941.53;6219553;28;19956;-76
2023/06/27 04:53:43;;;;;;;;;;;;;;;19.94;41.85;95944.56;6217293;28;20011;-76
2023/06/27 04:56:46;;;;;;;;;;;;;;;21.19;38.63;95959.91;6221530;28;19921;-75
2023/06/27 04:59:49;;;;;;;;;;;;;;;22.63;36.97;95960.63;6228475;28;19964;-76
2023/06/27 05:02:52;;;;;;;;;;;;;;;23.30;35.33;95964.50;6229299;28;20007;-75
2023/06/27 05:05:56;;;;;;;;;;;;;;;23.77;34.67;95958.44;6222611;28;20019;-77
2023/06/27 05:09:01;;;;;;;;;;;;;;;24.87;33.60;95960.47;6217574;28;20343;-76
2023/06/27 05:12:04;;;;;;;;;;;;;;;25.43;31.94;95969.81;6224787;28;19926;-76
2023/06/27 05:15:08;;;;;;;;;;;;;;;27.51;29.11;95975.91;6224801;28;19925;-76
2023/06/27 05:18:13;;;;;;;;;;;;;;;28.15;26.88;95970.88;6204915;28;19953;-76
2023/06/27 05:21:16;;;;;;;;;;;;;;;27.46;27.67;95962.25;6221098;28;20456;-78
2023/06/27 05:24:20;;;;;;;;;;;;;;;27.63;27.99;95968.69;6215526;28;19921;-76
2023/06/27 05:27:23;;;;;;;;;;;;;;;28.81;26.17;95971.66;6244551;28;19921;-77
2023/06/27 05:30:26;;;;;;;;;;;;;;;29.01;25.64;95974.81;6217860;28;19921;-76
2023/06/27 05:33:30;;;;;;;;;;;;;;;29.03;24.67;95970.00;6220955;28;19967;-76
2023/06/27 05:36:34;;;;;;;;;;;;;;;28.28;26.08;95973.38;6226025;28;19936;-75
2023/06/27 05:39:36;;;;;;;;;;;;;;;28.80;25.42;95984.38;6229265;28;19979;-76
2023/06/27 05:42:39;;;;;;;;;;;;;;;30.50;24.07;95964.13;6247586;28;20086;-75
2023/06/27 05:45:42;;;;;;;;;;;;;;;31.95;21.90;95982.91;6248921;28;20434;-76
2023/06/27 05:48:45;;;;;;;;;;;;;;;31.97;21.93;95970.72;6247770;28;19927;-77
2023/06/27 05:51:48;;;;;;;;;;;;;;;32.24;21.65;95993.53;6246732;28;19921;-76
2023/06/27 05:54:52;;;;;;;;;;;;;;;32.87;21.37;95986.44;6247000;28;20016;-74
2023/06/27 05:57:56;;;;;;;;;;;;;;;33.60;20.60;95977.59;6218747;28;19922;-76
2023/06/27 06:00:58;;;;;;;;;;;;;;;34.46;20.56;95984.34;6239701;28;20483;-75
2023/06/27 06:04:01;;;;;;;;;;;;;;;35.96;18.56;95982.63;6246807;28;19924;-75
2023/06/27 06:07:06;;;;;;;;;;;;;;;36.67;17.25;95986.00;6233373;28;19999;-75
2023/06/27 06:10:10;;;;;;;;;;;;;;;36.29;16.79;95993.09;6226829;28;20023;-76
2023/06/27 06:13:13;;;;;;;;;;;;;;;34.97;18.51;95979.66;6226145;28;20050;-79
2023/06/27 06:16:16;;;;;;;;;;;;;;;32.69;20.07;95975.97;6228823;28;19921;-63
2023/06/27 06:19:19;;;;;;;;;;;;;;;33.56;20.30;95987.41;6234002;28;19916;-63
2023/06/27 06:22:23;;;;;;;;;;;;;;;36.39;17.40;95998.53;6237754;28;20420;-65
2023/06/27 06:25:27;;;;;;;;;;;;;;;37.61;15.83;95993.00;6231705;28;19917;-62
2023/06/27 06:28:31;;;;;;;;;;;;;;;37.82;15.61;95991.66;6229556;28;19925;-62
2023/06/27 06:31:35;;;;;;;;;;;;;;;36.88;17.26;96005.81;6231486;28;19921;-62
2023/06/27 06:34:39;;;;;;;;;;;;;;;37.99;15.58;96015.84;6231553;28;19929;-63
2023/06/27 06:37:44;;;;;;;;;;;;;;;37.52;15.56;96004.63;6140579;28;2145557;-62
2023/06/27 06:40:46;;;;;;;;;;;;;;;39.13;15.23;96016.59;6215392;28;19920;-62
2023/06/27 06:43:49;;;;;;;;;;;;;;;40.54;14.23;96015.91;6220486;28;20023;-64
2023/06/27 06:46:53;;;;;;;;;;;;;;;40.48;12.88;96019.88;6199759;28;19925;-65
2023/06/27 06:49:57;;;;;;;;;;;;;;;40.23;13.59;96012.22;6206756;28;19921;-63
2023/06/27 06:53:01;;;;;;;;;;;;;;;39.27;14.48;96028.44;6201594;28;19922;-64
2023/06/27 06:56:05;;;;;;;;;;;;;;;38.20;14.93;96008.16;6200567;28;19929;-65
2023/06/27 06:59:08;;;;;;;;;;;;;;;38.61;14.62;96013.03;6200760;28;19925;-66
2023/06/27 07:02:11;;;;;;;;;;;;;;;38.52;14.66;96017.59;6200704;28;20329;-64
2023/06/27 07:05:14;;;;;;;;;;;;;;;39.21;13.92;96020.56;6214168;28;19921;-64
2023/06/27 07:08:18;;;;;;;;;;;;;;;40.03;13.41;96017.03;6205911;28;19921;-61
2023/06/27 07:11:21;;;;;;;;;;;;;;;40.19;13.31;96014.78;6198806;28;19987;-62
2023/06/27 07:14:24;;;;;;;;;;;;;;;40.24;13.59;96019.38;6219539;28;20446;-62
2023/06/27 07:17:27;;;;;;;;;;;;;;;41.90;12.43;96031.16;6220927;28;20006;-63
2023/06/27 07:20:30;;;;;;;;;;;;;;;40.26;12.87;96028.16;6220335;28;20396;-61
2023/06/27 07:23:36;;;;;;;;;;;;;;;38.80;13.41;96022.06;6203873;28;19929;-61
2023/06/27 07:26:39;;;;;;;;;;;;;;;37.26;15.11;96014.25;6206896;28;19926;-62
2023/06/27 07:29:44;;;;;;;;;;;;;;;36.41;15.53;96020.97;6204334;28;19921;-65
2023/06/27 07:32:47;;;;;;;;;;;;;;;34.58;16.36;96020.41;6198935;28;19926;-62
2023/06/27 07:35:50;;;;;;;;;;;;;;;34.04;16.70;96009.94;6208016;28;19921;-63
2023/06/27 07:38:57;;;;;;;;;;;;;;;32.76;17.81;96006.53;6224199;28;20348;-63
2023/06/27 07:42:00;;;;;;;;;;;;;;;31.16;18.96;96000.41;6225052;28;19959;-62
2023/06/27 07:45:04;;;;;;;;;;;;;;;29.96;19.85;96007.94;6227488;28;19998;-66
2023/06/27 07:48:08;;;;;;;;;;;;;;;32.53;18.13;96018.63;6225955;28;20366;-62
2023/06/27 07:51:12;;;;;;;;;;;;;;;35.68;15.74;96025.19;6225092;28;19921;-64
2023/06/27 07:54:16;;;;;;;;;;;;;;;36.41;15.45;96023.72;6221491;28;19925;-62
2023/06/27 07:57:20;;;;;;;;;;;;;;;34.96;16.42;96020.94;6224978;28;19921;-63
2023/06/27 08:00:23;;;;;;;;;;;;;;;35.36;16.50;96024.72;6220738;28;19924;-63
2023/06/27 08:03:25;;;;;;;;;;;;;;;32.47;18.85;96023.19;6226755;28;20083;-62
2023/06/27 08:06:28;;;;;;;;;;;;;;;29.29;21.62;96013.91;6224065;28;19924;-64
2023/06/27 08:09:32;;;;;;;;;;;;;;;27.27;23.99;96024.41;6227350;28;19958;-63
2023/06/27 08:12:36;;;;;;;;;;;;;;;26.65;24.89;96020.88;6223093;28;19921;-63
2023/06/27 08:15:40;;;;;;;;;;;;;;;25.58;26.34;96030.66;6225563;28;19921;-62
2023/06/27 08:18:44;;;;;;;;;;;;;;;24.98;26.99;96020.88;6224415;28;20423;-62
2023/06/27 08:21:46;;;;;;;;;;;;;;;23.86;28.12;96019.00;6224086;28;20310;-63
2023/06/27 08:24:50;;;;;;;;;;;;;;;23.03;29.29;96021.75;6225022;28;19921;-63
2023/06/27 08:27:54;;;;;;;;;;;;;;;23.03;29.84;96029.78;6226488;28;19927;-62
2023/06/27 08:30:57;;;;;;;;;;;;;;;24.50;27.63;96034.59;6216344;28;19921;-64
2023/06/27 08:34:01;;;;;;;;;;;;;;;26.84;24.84;96038.75;6201917;28;20019;-62
2023/06/27 08:37:05;;;;;;;;;;;;;;;29.67;21.93;96047.78;6222591;28;19925;-63
2023/06/27 08:40:09;;;;;;;;;;;;;;;31.70;20.71;96051.44;6224304;28;19924;-63
2023/06/27 08:43:12;;;;;;;;;;;;;;;34.56;18.20;96063.56;6223242;28;19921;-62
2023/06/27 08:46:17;;;;;;;;;;;;;;;36.83;16.30;96063.41;6222856;28;19929;-62
2023/06/27 08:49:22;;;;;;;;;;;;;;;37.86;14.89;96064.06;6221545;28;19959;-62
2023/06/27 08:52:25;;;;;;;;;;;;;;;36.53;15.44;96054.34;6205380;28;19924;-62
2023/06/27 08:55:37;;;;;;;;;;;;;;;34.01;17.26;96065.06;6228553;28;19921;-65
2023/06/27 08:58:40;;;;;;;;;;;;;;;32.22;18.54;96056.41;6225686;28;19951;-63
2023/06/27 09:01:43;;;;;;;;;;;;;;;31.37;19.73;96049.66;6243728;28;20000;-62
2023/06/27 09:04:47;;;;;;;;;;;;;;;31.23;19.75;96055.41;6234981;28;20048;-62
2023/06/27 09:07:49;;;;;;;;;;;;;;;31.19;19.70;96059.69;6220030;28;19921;-63
2023/06/27 09:10:53;;;;;;;;;;;;;;;30.68;20.14;96061.59;6220512;28;19979;-62
2023/06/27 09:13:56;;;;;;;;;;;;;;;30.89;19.66;96053.81;6233270;28;20080;-64
2023/06/27 09:17:00;;;;;;;;;;;;;;;31.51;19.29;96056.38;6239828;28;19989;-63
2023/06/27 09:20:05;;;;;;;;;;;;;;;31.87;18.12;96064.97;6243661;28;20436;-63
2023/06/27 09:23:08;;;;;;;;;;;;;;;32.06;18.27;96063.59;6230129;28;19972;-63
2023/06/27 09:26:12;;;;;;;;;;;;;;;31.47;18.70;96049.78;6224518;28;19921;-64
2023/06/27 09:29:16;;;;;;;;;;;;;;;31.07;18.82;96062.50;6224680;28;19921;-63
2023/06/27 09:32:20;;;;;;;;;;;;;;;31.66;18.87;96053.84;6226220;28;20444;-63
2023/06/27 09:35:23;;;;;;;;;;;;;;;32.18;18.51;96061.53;6238638;28;20412;-62
2023/06/27 09:38:30;;;;;;;;;;;;;;;31.93;18.83;96063.97;6226148;28;19925;-63
2023/06/27 09:41:47;;;;;;;;;;;;;;;33.39;17.71;96058.47;6223883;28;20338;-63
2023/06/27 09:44:51;;;;;;;;;;;;;;;31.91;18.23;96058.78;6247323;28;20011;-63
2023/06/27 09:47:53;;;;;;;;;;;;;;;30.11;20.38;96061.66;6245328;28;19921;-63
2023/06/27 09:51:00;;;;;;;;;;;;;;;28.86;21.74;96058.41;6214028;28;19953;-63
2023/06/27 09:54:02;;;;;;;;;;;;;;;28.19;22.15;96062.16;6203807;28;19921;-63
2023/06/27 09:57:11;;;;;;;;;;;;;;;27.82;22.51;96052.47;6204495;28;19921;-62
2023/06/27 10:00:16;;;;;;;;;;;;;;;28.10;22.01;96055.41;6202188;28;20016;-64
2023/06/27 10:03:21;;;;;;;;;;;;;;;30.51;19.66;96055.34;6205583;28;19921;-63
2023/06/27 10:06:24;;;;;;;;;;;;;;;33.06;17.90;96068.63;6204161;28;19921;-63
2023/06/27 10:09:28;;;;;;;;;;;;;;;34.87;16.03;96078.88;6203422;28;19921;-63
2023/06/27 10:12:32;;;;;;;;;;;;;;;35.98;14.76;96061.72;6200812;28;19921;-62
2023/06/27 10:15:35;;;;;;;;;;;;;;;35.36;15.17;96068.47;6199909;28;20012;-62
2023/06/27 10:18:38;;;;;;;;;;;;;;;33.75;15.90;96067.69;6201915;28;19925;-63
2023/06/27 10:21:42;;;;;;;;;;;;;;;31.88;18.08;96062.00;6190162;28;20031;-64
2023/06/27 10:24:47;;;;;;;;;;;;;;;32.49;17.75;96064.59;6204265;28;19926;-62
2023/06/27 10:27:49;;;;;;;;;;;;;;;33.60;16.42;96071.16;6203630;28;19925;-62
2023/06/27 10:30:53;;;;;;;;;;;;;;;33.59;16.57;96063.25;6219338;28;20040;-63
2023/06/27 10:33:57;;;;;;;;;;;;;;;33.24;16.72;96061.94;6220951;28;20444;-63
2023/06/27 10:37:01;;;;;;;;;;;;;;;32.99;17.00;96059.81;6244777;28;19924;-63
2023/06/27 10:40:04;;;;;;;;;;;;;;;33.97;16.74;96068.31;6222994;28;19921;-63
2023/06/27 10:43:07;;;;;;;;;;;;;;;34.30;16.20;96074.44;6219955;28;19921;-64
2023/06/27 10:46:11;;;;;;;;;;;;;;;32.45;17.14;96059.91;6207996;28;19936;-62
2023/06/27 10:49:15;;;;;;;;;;;;;;;30.78;19.13;96064.50;6218826;28;19920;-62
2023/06/27 10:52:21;;;;;;;;;;;;;;;30.73;19.44;96060.88;6223243;28;19978;-63
2023/06/27 10:55:27;;;;;;;;;;;;;;;31.29;18.14;96056.31;6216296;28;20393;-62
2023/06/27 10:58:40;;;;;;;;;;;;;;;31.54;17.74;96061.31;6221337;28;20398;-64
2023/06/27 11:01:45;;;;;;;;;;;;;;;29.98;18.75;96055.47;6202755;28;19925;-66
2023/06/27 11:04:49;;;;;;;;;;;;;;;28.96;19.21;96047.84;6219512;28;19925;-64
2023/06/27 11:07:52;;;;;;;;;;;;;;;28.76;19.05;96050.03;6213925;28;19925;-63
2023/06/27 11:11:03;;;;;;;;;;;;;;;28.53;19.20;96038.13;6204506;28;19976;-65
2023/06/27 11:14:09;;;;;;;;;;;;;;;28.86;19.28;96044.88;6204622;28;19927;-62
2023/06/27 11:17:13;;;;;;;;;;;;;;;29.50;18.89;96048.50;6234686;28;19927;-62
2023/06/27 11:20:17;;;;;;;;;;;;;;;29.89;18.19;96054.19;6219724;28;19925;-64
2023/06/27 11:23:21;;;;;;;;;;;;;;;30.08;18.02;96054.81;6220021;28;19936;-63
2023/06/27 11:26:25;;;;;;;;;;;;;;;30.23;18.67;96054.31;6218391;28;19936;-65
2023/06/27 11:29:29;;;;;;;;;;;;;;;30.07;18.99;96057.78;6188271;28;19921;-63
2023/06/27 11:32:32;;;;;;;;;;;;;;;30.40;18.55;96051.63;6211528;28;19925;-63
2023/06/27 11:35:36;;;;;;;;;;;;;;;30.58;18.24;96048.69;6221432;28;19991;-64
2023/06/27 11:38:42;;;;;;;;;;;;;;;30.38;18.12;96064.63;6228848;28;19954;-63
2023/06/27 11:41:45;;;;;;;;;;;;;;;29.84;18.44;96053.25;6240135;28;19955;-64
2023/06/27 11:44:49;;;;;;;;;;;;;;;29.48;19.08;96050.63;6241638;28;20011;-64
2023/06/27 11:47:53;;;;;;;;;;;;;;;28.58;19.55;96051.78;6219849;28;19925;-63
2023/06/27 11:51:07;;;;;;;;;;;;;;;27.95;20.48;96052.31;6235537;28;19921;-64
2023/06/27 11:54:10;;;;;;;;;;;;;;;27.51;20.88;96052.38;6238857;28;19925;-64
2023/06/27 11:57:14;;;;;;;;;;;;;;;26.39;21.77;96057.78;6238150;28;19921;-64
2023/06/27 12:00:20;;;;;;;;;;;;;;;26.05;22.23;96052.84;6232769;28;19920;-65
2023/06/27 12:03:27;;;;;;;;;;;;;;;26.35;22.48;96043.06;6222493;28;19936;-64
2023/06/27 12:06:34;;;;;;;;;;;;;;;26.71;21.75;96041.56;6235683;28;19924;-65
2023/06/27 12:09:38;;;;;;;;;;;;;;;27.04;21.40;96051.25;6240569;28;20384;-63
2023/06/27 12:12:40;;;;;;;;;;;;;;;27.20;20.85;96050.66;6219638;28;20403;-65
2023/06/27 12:15:47;;;;;;;;;;;;;;;27.58;20.70;96048.81;6219183;28;20302;-64
2023/06/27 12:18:49;;;;;;;;;;;;;;;26.97;20.53;96050.47;6236701;28;19924;-65
2023/06/27 12:21:53;;;;;;;;;;;;;;;26.51;20.57;96046.31;6234898;28;20030;-65
2023/06/27 12:24:56;;;;;;;;;;;;;;;25.69;21.58;96046.97;6236046;28;20321;-63
2023/06/27 12:28:00;;;;;;;;;;;;;;;25.25;22.29;96047.75;6240686;28;20557;-64
2023/06/27 12:31:03;;;;;;;;;;;;;;;25.19;22.30;96052.09;6231658;28;19921;-64
2023/06/27 12:34:07;;;;;;;;;;;;;;;25.24;21.91;96046.91;6241802;28;19931;-64
2023/06/27 12:37:10;;;;;;;;;;;;;;;24.85;22.89;96042.41;6215846;28;20427;-64
2023/06/27 12:40:15;;;;;;;;;;;;;;;24.38;23.30;96042.44;6215048;28;20016;-63
2023/06/27 12:43:18;;;;;;;;;;;;;;;24.31;22.97;96040.75;6219100;28;19988;-64
2023/06/27 12:46:22;;;;;;;;;;;;;;;24.12;23.07;96043.25;6216849;28;20374;-65
2023/06/27 12:49:25;;;;;;;;;;;;;;;24.05;23.34;96047.75;6218515;28;19921;-64
2023/06/27 12:52:28;;;;;;;;;;;;;;;24.08;23.51;96046.53;6214945;28;19928;-63
2023/06/27 12:55:32;;;;;;;;;;;;;;;24.01;23.46;96046.53;6213051;28;19921;-63
2023/06/27 12:58:36;;;;;;;;;;;;;;;24.11;23.51;96048.81;6214210;28;20457;-63
2023/06/27 13:01:54;;;;;;;;;;;;;;;24.17;24.12;96056.88;6209194;28;19931;-65
2023/06/27 13:04:57;;;;;;;;;;;;;;;24.02;24.20;96058.91;6212845;28;19924;-66
2023/06/27 13:08:00;;;;;;;;;;;;;;;23.66;24.57;96054.66;6216627;28;19925;-65
2023/06/27 13:11:03;;;;;;;;;;;;;;;23.33;25.09;96048.34;6223114;28;19921;-65
2023/06/27 13:14:07;;;;;;;;;;;;;;;23.26;25.43;96059.84;6219102;28;20434;-64
2023/06/27 13:17:11;;;;;;;;;;;;;;;23.52;25.40;96051.09;6219098;28;19936;-65
2023/06/27 13:20:16;;;;;;;;;;;;;;;23.67;25.12;96053.63;6211178;28;19926;-65
2023/06/27 13:23:20;;;;;;;;;;;;;;;23.81;25.01;96051.84;6213636;28;19921;-65
2023/06/27 13:26:23;;;;;;;;;;;;;;;24.04;24.46;96062.25;6220511;28;19921;-65
2023/06/27 13:29:28;;;;;;;;;;;;;;;24.42;23.36;96053.59;6219772;28;21837;-64
2023/06/27 13:32:31;;;;;;;;;;;;;;;24.42;23.57;96053.59;6218376;28;19921;-64
2023/06/27 13:35:35;;;;;;;;;;;;;;;24.13;23.72;96054.81;6226567;28;19942;-64
2023/06/27 13:38:40;;;;;;;;;;;;;;;23.93;24.26;96046.72;6227669;28;19925;-64
2023/06/27 13:41:44;;;;;;;;;;;;;;;24.10;24.22;96055.22;6244908;28;19924;-65
2023/06/27 13:44:47;;;;;;;;;;;;;;;24.22;23.66;96053.56;6243336;28;20445;-64
2023/06/27 13:47:50;;;;;;;;;;;;;;;24.36;23.78;96049.03;6243378;28;20019;-64
2023/06/27 13:50:56;;;;;;;;;;;;;;;24.56;23.61;96049.91;6244966;28;20415;-64
2023/06/27 13:53:59;;;;;;;;;;;;;;;24.67;23.34;96055.69;6240123;28;19962;-64
2023/06/27 13:57:03;;;;;;;;;;;;;;;24.61;23.47;96050.09;6239533;28;20019;-65
2023/06/27 14:00:07;;;;;;;;;;;;;;;24.55;23.05;96052.81;6236235;28;19921;-64
2023/06/27 14:03:11;;;;;;;;;;;;;;;24.34;23.53;96051.09;6241751;28;20019;-65
2023/06/27 14:06:15;;;;;;;;;;;;;;;23.97;24.26;96056.00;6236834;28;19917;-65
2023/06/27 14:09:19;;;;;;;;;;;;;;;23.74;24.46;96061.72;6221680;28;19925;-65
2023/06/27 14:12:22;;;;;;;;;;;;;;;23.68;24.11;96055.28;6235024;28;19925;-64
2023/06/27 14:15:25;;;;;;;;;;;;;;;23.55;24.60;96065.97;6235524;28;19921;-64
2023/06/27 14:18:28;;;;;;;;;;;;;;;23.59;24.58;96058.34;6238051;28;19920;-64
2023/06/27 14:21:33;;;;;;;;;;;;;;;23.54;24.48;96061.63;6221098;28;20008;-66
2023/06/27 14:24:37;;;;;;;;;;;;;;;23.46;24.83;96069.84;6218204;28;19950;-65
2023/06/27 14:27:41;;;;;;;;;;;;;;;23.43;25.02;96071.06;6216411;28;20012;-65
2023/06/27 14:30:45;;;;;;;;;;;;;;;23.35;24.97;96070.41;6241700;28;19978;-64
2023/06/27 14:33:49;;;;;;;;;;;;;;;23.20;24.85;96068.69;6240814;28;19929;-64
2023/06/27 14:36:55;;;;;;;;;;;;;;;23.15;24.69;96078.38;6226506;28;20099;-64
2023/06/27 14:39:58;;;;;;;;;;;;;;;22.96;24.93;96074.56;6227948;28;20053;-64
2023/06/27 14:43:03;;;;;;;;;;;;;;;22.83;25.50;96073.38;6213383;28;19998;-64
2023/06/27 14:46:05;;;;;;;;;;;;;;;22.64;25.55;96072.22;6216404;28;20325;-64
2023/06/27 14:49:09;;;;;;;;;;;;;;;22.52;25.86;96083.66;6221385;28;20401;-65
2023/06/27 14:52:13;;;;;;;;;;;;;;;22.40;25.70;96086.03;6220141;28;20458;-65
2023/06/27 14:55:16;;;;;;;;;;;;;;;22.13;26.16;96080.38;6216545;28;20028;-64
2023/06/27 14:58:22;;;;;;;;;;;;;;;22.00;26.32;96084.81;6217420;28;19921;-64
2023/06/27 15:01:26;;;;;;;;;;;;;;;21.91;26.56;96082.25;6214126;28;20376;-64
2023/06/27 15:04:28;;;;;;;;;;;;;;;21.87;26.71;96085.47;6196420;28;20490;-64
2023/06/27 15:07:30;;;;;;;;;;;;;;;21.63;27.23;96090.16;6196641;28;20012;-65
2023/06/27 15:10:33;;;;;;;;;;;;;;;21.49;27.23;96094.50;6244613;28;19921;-65
2023/06/27 15:13:38;;;;;;;;;;;;;;;21.47;27.43;96088.50;6237200;28;19962;-64
2023/06/27 15:16:41;;;;;;;;;;;;;;;21.36;27.50;96088.94;6218510;28;20012;-64
2023/06/27 15:19:46;;;;;;;;;;;;;;;21.31;27.82;96086.00;6204237;28;20372;-65
2023/06/27 15:22:49;;;;;;;;;;;;;;;21.20;28.12;96086.47;6205245;28;20005;-64
2023/06/27 15:25:52;;;;;;;;;;;;;;;20.98;28.35;96083.72;6217497;28;19921;-65
2023/06/27 15:28:55;;;;;;;;;;;;;;;20.83;28.68;96093.53;6220568;28;20031;-65
2023/06/27 15:31:59;;;;;;;;;;;;;;;20.61;28.82;96089.94;6230402;28;19921;-65
2023/06/27 15:35:03;;;;;;;;;;;;;;;20.46;29.24;96091.69;6218616;28;19925;-73
2023/06/27 15:38:10;;;;;;;;;;;;;;;20.30;29.58;96095.34;6230292;28;19927;-74
2023/06/27 15:41:13;;;;;;;;;;;;;;;20.05;30.11;96102.69;6243139;28;19928;-74
2023/06/27 15:44:16;;;;;;;;;;;;;;;19.84;30.28;96097.97;6244941;28;19928;-76
2023/06/27 15:47:19;;;;;;;;;;;;;;;19.62;30.49;96105.75;6244307;28;19920;-74
2023/06/27 15:50:22;;;;;;;;;;;;;;;19.53;30.72;96101.44;6239224;28;19921;-73
2023/06/27 15:53:25;;;;;;;;;;;;;;;19.42;30.82;96100.00;6237391;28;19921;-74
2023/06/27 15:56:28;;;;;;;;;;;;;;;19.26;30.73;96100.91;6243845;28;19925;-74
2023/06/27 15:59:31;;;;;;;;;;;;;;;19.14;31.19;96104.94;6244395;28;20012;-74